Ek-star — LAMT5 — position and weather

sailwx.info

Track history (hours):
 
Tides and Currents Weather Stations Pressure Air Temp Water Temp Dewpoint Dewpoint Depression Visibility Wind Speed Wind Dir Waves Ship Positions

Ek-star

Last reported at 2016-Sep-24 14:33 UTC. Time now 2016-Sep-26 03:45 UTC.
Position N 60°03' E 028°28'.

Length 135 m; draft 6.3 m.

Type: Tanker. MMSI: 257433000.

Date/timePositionNaut miles runAvg speedWind from/ knotsBaromVisibWave heightAir tempDewpointWater temp
2016-Sep-24 14:33N 60°03' E 028°28'2712.2
2016-Sep-24 12:21N 60°08' E 027°35'2312.6
2016-Sep-24 10:33N 59°58' E 026°54'9112.9
2016-Sep-24 03:33N 59°39' E 023°58'1312.9
2016-Sep-24 02:33N 59°35' E 023°34'1312.9
2016-Sep-24 01:33N 59°31' E 023°10'35812.3
2016-Sep-22 20:33N 55°30' E 014°58'18011.2
2016-Sep-22 04:33N 54°22' E 010°09'1 0.6
2016-Sep-22 03:33N 54°22' E 010°08'15 5.0
2016-Sep-22 00:32N 54°18' E 009°42'13 6.6
2016-Sep-21 22:33N 54°10' E 009°25'18 6.0
2016-Sep-21 19:33N 53°54' E 009°10'19 6.2
2016-Sep-21 16:32N 53°57' E 008°38'9012.9
2016-Sep-21 09:33N 53°42' E 006°07'1413.6
2016-Sep-21 08:33N 53°38' E 005°45'6613.0
2016-Sep-21 03:26N 52°56' E 004°19'63 6.3
2016-Sep-20 17:32N 51°54' E 004°22'0 0.0
2016-Sep-20 10:29N 51°54' E 004°22'0 0.0
2016-Sep-20 08:32N 51°54' E 004°22'14 2.3
2016-Sep-20 02:33N 51°60' E 004°02'15 0.6
2016-Sep-19 03:07N 52°09' E 003°42'18 1.5
2016-Sep-18 15:32N 52°26' E 003°51'1110.7
2016-Sep-18 14:33N 52°36' E 003°55'13711.4
2016-Sep-18 02:33N 53°56' E 007°02'1413.5
2016-Sep-18 01:32N 53°59' E 007°24'1312.7
2016-Sep-18 00:33N 54°02' E 007°45'2512.3
2016-Sep-17 22:33N 53°59' E 008°27'1110.7
2016-Sep-17 21:33N 53°53' E 008°42'1312.6
2016-Sep-17 20:33N 53°52' E 009°04'4 3.2
2016-Sep-17 19:16N 53°54' E 009°10'36 6.2
2016-Sep-17 13:26N 54°22' E 009°50'6 7.3
2016-Sep-17 12:33N 54°21' E 010°01'7 3.5
2016-Sep-17 10:33N 54°24' E 010°12'1510.3
2016-Sep-17 09:08N 54°33' E 010°31'712.7
2016-Sep-17 08:33N 54°35' E 010°44'1312.8
2016-Sep-17 07:34N 54°36' E 011°05'2612.7
2016-Sep-17 05:33N 54°26' E 011°46'1312.7
2016-Sep-17 04:33N 54°26' E 012°08'13412.1
2016-Sep-16 17:33N 55°41' E 015°21'35712.3
2016-Sep-15 12:33N 59°41' E 023°36'9812.3
2016-Sep-15 04:33N 60°00' E 026°48'1611.5
2016-Sep-15 03:10N 60°04' E 027°19'1911.5
2016-Sep-15 01:33N 60°11' E 027°54'3611.8
2016-Sep-14 22:32N 60°03' E 029°03'37 7.3
2016-Sep-14 17:31N 59°53' E 030°13'0 0.0
2016-Sep-14 16:31N 59°53' E 030°13'  
Track history (hours):
 
Tides and Currents Weather Stations Pressure Air Temp Water Temp Dewpoint Dewpoint Depression Visibility Wind Speed Wind Dir Waves Ship Positions

Ek-star

Last reported at 2016-Sep-24 14:33 UTC. Time now 2016-Sep-26 03:45 UTC.
Position N 60°03' E 028°28'.

Length 135 m; draft 6.3 m.

Type: Tanker. MMSI: 257433000.

Date/timePositionNaut miles runAvg speedWind from/ knotsBaromVisibWave heightAir tempDewpointWater temp
2016-Sep-24 14:33N 60°03' E 028°28'2712.2
2016-Sep-24 12:21N 60°08' E 027°35'2312.6
2016-Sep-24 10:33N 59°58' E 026°54'9112.9
2016-Sep-24 03:33N 59°39' E 023°58'1312.9
2016-Sep-24 02:33N 59°35' E 023°34'1312.9
2016-Sep-24 01:33N 59°31' E 023°10'35812.3
2016-Sep-22 20:33N 55°30' E 014°58'18011.2
2016-Sep-22 04:33N 54°22' E 010°09'1 0.6
2016-Sep-22 03:33N 54°22' E 010°08'15 5.0
2016-Sep-22 00:32N 54°18' E 009°42'13 6.6
2016-Sep-21 22:33N 54°10' E 009°25'18 6.0
2016-Sep-21 19:33N 53°54' E 009°10'19 6.2
2016-Sep-21 16:32N 53°57' E 008°38'9012.9
2016-Sep-21 09:33N 53°42' E 006°07'1413.6
2016-Sep-21 08:33N 53°38' E 005°45'6613.0
2016-Sep-21 03:26N 52°56' E 004°19'63 6.3
2016-Sep-20 17:32N 51°54' E 004°22'0 0.0
2016-Sep-20 10:29N 51°54' E 004°22'0 0.0
2016-Sep-20 08:32N 51°54' E 004°22'14 2.3
2016-Sep-20 02:33N 51°60' E 004°02'15 0.6
2016-Sep-19 03:07N 52°09' E 003°42'18 1.5
2016-Sep-18 15:32N 52°26' E 003°51'1110.7
2016-Sep-18 14:33N 52°36' E 003°55'13711.4
2016-Sep-18 02:33N 53°56' E 007°02'1413.5
2016-Sep-18 01:32N 53°59' E 007°24'1312.7
2016-Sep-18 00:33N 54°02' E 007°45'2512.3
2016-Sep-17 22:33N 53°59' E 008°27'1110.7
2016-Sep-17 21:33N 53°53' E 008°42'1312.6
2016-Sep-17 20:33N 53°52' E 009°04'4 3.2
2016-Sep-17 19:16N 53°54' E 009°10'36 6.2
2016-Sep-17 13:26N 54°22' E 009°50'6 7.3
2016-Sep-17 12:33N 54°21' E 010°01'7 3.5
2016-Sep-17 10:33N 54°24' E 010°12'1510.3
2016-Sep-17 09:08N 54°33' E 010°31'712.7
2016-Sep-17 08:33N 54°35' E 010°44'1312.8
2016-Sep-17 07:34N 54°36' E 011°05'2612.7
2016-Sep-17 05:33N 54°26' E 011°46'1312.7
2016-Sep-17 04:33N 54°26' E 012°08'13412.1
2016-Sep-16 17:33N 55°41' E 015°21'35712.3
2016-Sep-15 12:33N 59°41' E 023°36'9812.3
2016-Sep-15 04:33N 60°00' E 026°48'1611.5
2016-Sep-15 03:10N 60°04' E 027°19'1911.5
2016-Sep-15 01:33N 60°11' E 027°54'3611.8
2016-Sep-14 22:32N 60°03' E 029°03'37 7.3
2016-Sep-14 17:31N 59°53' E 030°13'0 0.0
2016-Sep-14 16:31N 59°53' E 030°13'  

Dump ship's entire track history